sensor_id;sensor_type;location;lat;lon;timestamp;temperature;humidity
28632;DHT22;15818;45.534;5.292;2022-11-03T00:00:08;11.20;99.90
28632;DHT22;15818;45.534;5.292;2022-11-03T00:02:35;11.20;99.90
28632;DHT22;15818;45.534;5.292;2022-11-03T00:05:00;11.20;99.90
28632;DHT22;15818;45.534;5.292;2022-11-03T00:07:46;11.20;99.90
28632;DHT22;15818;45.534;5.292;2022-11-03T00:10:11;11.10;99.90
28632;DHT22;15818;45.534;5.292;2022-11-03T00:12:37;11.10;99.90
28632;DHT22;15818;45.534;5.292;2022-11-03T00:15:03;11.00;99.90
28632;DHT22;15818;45.534;5.292;2022-11-03T00:17:28;10.90;99.90
28632;DHT22;15818;45.534;5.292;2022-11-03T00:19:54;10.90;99.90
28632;DHT22;15818;45.534;5.292;2022-11-03T00:22:20;11.00;99.90
28632;DHT22;15818;45.534;5.292;2022-11-03T00:24:45;10.90;99.90
28632;DHT22;15818;45.534;5.292;2022-11-03T00:27:11;10.90;99.90
28632;DHT22;15818;45.534;5.292;2022-11-03T00:29:36;11.00;99.90
28632;DHT22;15818;45.534;5.292;2022-11-03T00:32:02;11.00;99.90
28632;DHT22;15818;45.534;5.292;2022-11-03T00:34:27;10.90;99.90
28632;DHT22;15818;45.534;5.292;2022-11-03T00:36:53;11.00;99.90
28632;DHT22;15818;45.534;5.292;2022-11-03T00:39:19;11.00;99.90
28632;DHT22;15818;45.534;5.292;2022-11-03T00:41:44;11.00;99.90
28632;DHT22;15818;45.534;5.292;2022-11-03T00:44:10;11.00;99.90
28632;DHT22;15818;45.534;5.292;2022-11-03T00:46:37;11.10;99.90
28632;DHT22;15818;45.534;5.292;2022-11-03T00:49:03;11.10;99.90
28632;DHT22;15818;45.534;5.292;2022-11-03T00:51:30;11.10;99.90
28632;DHT22;15818;45.534;5.292;2022-11-03T00:53:56;11.00;99.90
28632;DHT22;15818;45.534;5.292;2022-11-03T00:56:28;11.00;99.90
28632;DHT22;15818;45.534;5.292;2022-11-03T00:58:55;11.00;99.90
28632;DHT22;15818;45.534;5.292;2022-11-03T01:01:33;10.90;99.90
28632;DHT22;15818;45.534;5.292;2022-11-03T01:04:02;10.90;99.90
28632;DHT22;15818;45.534;5.292;2022-11-03T01:06:48;10.90;99.90
28632;DHT22;15818;45.534;5.292;2022-11-03T01:09:37;10.90;99.90
28632;DHT22;15818;45.534;5.292;2022-11-03T01:14:39;10.90;99.90
28632;DHT22;15818;45.534;5.292;2022-11-03T01:17:07;10.80;99.90
28632;DHT22;15818;45.534;5.292;2022-11-03T01:19:33;10.90;99.90
28632;DHT22;15818;45.534;5.292;2022-11-03T01:21:58;10.90;99.90
28632;DHT22;15818;45.534;5.292;2022-11-03T01:24:24;10.80;99.90
28632;DHT22;15818;45.534;5.292;2022-11-03T01:26:50;10.90;99.90
28632;DHT22;15818;45.534;5.292;2022-11-03T01:29:16;10.90;99.90
28632;DHT22;15818;45.534;5.292;2022-11-03T01:31:41;11.00;99.90
28632;DHT22;15818;45.534;5.292;2022-11-03T01:34:14;11.00;99.90
28632;DHT22;15818;45.534;5.292;2022-11-03T01:36:41;11.00;99.90
28632;DHT22;15818;45.534;5.292;2022-11-03T01:39:09;11.00;99.90
28632;DHT22;15818;45.534;5.292;2022-11-03T01:41:36;11.00;99.90
28632;DHT22;15818;45.534;5.292;2022-11-03T01:44:45;10.90;99.90
28632;DHT22;15818;45.534;5.292;2022-11-03T01:47:28;10.90;99.90
28632;DHT22;15818;45.534;5.292;2022-11-03T01:50:13;10.80;99.90
28632;DHT22;15818;45.534;5.292;2022-11-03T01:52:56;10.80;99.90
28632;DHT22;15818;45.534;5.292;2022-11-03T01:55:26;10.70;99.90
28632;DHT22;15818;45.534;5.292;2022-11-03T01:57:59;10.70;99.90
28632;DHT22;15818;45.534;5.292;2022-11-03T02:00:27;10.50;99.90
28632;DHT22;15818;45.534;5.292;2022-11-03T02:02:52;10.60;99.90
28632;DHT22;15818;45.534;5.292;2022-11-03T02:05:21;10.70;99.90
28632;DHT22;15818;45.534;5.292;2022-11-03T02:08:30;10.70;99.90
28632;DHT22;15818;45.534;5.292;2022-11-03T02:10:58;10.80;99.90
28632;DHT22;15818;45.534;5.292;2022-11-03T02:13:25;10.80;99.90
28632;DHT22;15818;45.534;5.292;2022-11-03T02:15:57;10.80;99.90
28632;DHT22;15818;45.534;5.292;2022-11-03T02:18:29;10.80;99.90
28632;DHT22;15818;45.534;5.292;2022-11-03T02:21:11;10.80;99.90
28632;DHT22;15818;45.534;5.292;2022-11-03T02:26:17;10.80;99.90
28632;DHT22;15818;45.534;5.292;2022-11-03T02:28:43;10.80;99.90
28632;DHT22;15818;45.534;5.292;2022-11-03T02:31:17;10.80;99.90
28632;DHT22;15818;45.534;5.292;2022-11-03T02:38:44;10.70;99.90
28632;DHT22;15818;45.534;5.292;2022-11-03T02:41:11;10.60;99.90
28632;DHT22;15818;45.534;5.292;2022-11-03T02:43:40;10.70;99.90
28632;DHT22;15818;45.534;5.292;2022-11-03T02:46:06;10.70;99.90
28632;DHT22;15818;45.534;5.292;2022-11-03T02:48:32;10.80;99.90
28632;DHT22;15818;45.534;5.292;2022-11-03T02:50:57;10.80;99.90
28632;DHT22;15818;45.534;5.292;2022-11-03T02:53:24;10.80;99.90
28632;DHT22;15818;45.534;5.292;2022-11-03T02:56:02;10.90;99.90
28632;DHT22;15818;45.534;5.292;2022-11-03T02:58:53;10.90;99.90
28632;DHT22;15818;45.534;5.292;2022-11-03T03:01:31;10.90;99.90
28632;DHT22;15818;45.534;5.292;2022-11-03T03:04:31;11.00;99.90
28632;DHT22;15818;45.534;5.292;2022-11-03T03:07:15;10.90;99.90
28632;DHT22;15818;45.534;5.292;2022-11-03T03:10:05;10.90;99.90
28632;DHT22;15818;45.534;5.292;2022-11-03T03:12:35;10.90;99.90
28632;DHT22;15818;45.534;5.292;2022-11-03T03:15:03;11.00;99.90
28632;DHT22;15818;45.534;5.292;2022-11-03T03:17:56;11.20;99.90
28632;DHT22;15818;45.534;5.292;2022-11-03T03:20:35;11.10;99.90
28632;DHT22;15818;45.534;5.292;2022-11-03T03:23:32;11.30;99.90
28632;DHT22;15818;45.534;5.292;2022-11-03T03:28:36;11.20;99.90
28632;DHT22;15818;45.534;5.292;2022-11-03T03:31:06;11.20;99.90
28632;DHT22;15818;45.534;5.292;2022-11-03T03:33:34;11.30;99.90
28632;DHT22;15818;45.534;5.292;2022-11-03T03:36:03;11.20;99.90
28632;DHT22;15818;45.534;5.292;2022-11-03T03:38:34;11.20;99.90
28632;DHT22;15818;45.534;5.292;2022-11-03T03:41:01;11.20;99.90
28632;DHT22;15818;45.534;5.292;2022-11-03T03:43:28;11.20;99.90
28632;DHT22;15818;45.534;5.292;2022-11-03T03:46:09;11.10;99.90
28632;DHT22;15818;45.534;5.292;2022-11-03T03:48:36;11.10;99.90
28632;DHT22;15818;45.534;5.292;2022-11-03T03:51:01;11.20;99.90
28632;DHT22;15818;45.534;5.292;2022-11-03T03:53:29;11.20;99.90
28632;DHT22;15818;45.534;5.292;2022-11-03T03:55:55;11.20;99.90
28632;DHT22;15818;45.534;5.292;2022-11-03T03:58:22;11.30;99.90
28632;DHT22;15818;45.534;5.292;2022-11-03T04:00:47;11.30;99.90
28632;DHT22;15818;45.534;5.292;2022-11-03T04:03:18;11.40;99.90
28632;DHT22;15818;45.534;5.292;2022-11-03T04:05:44;11.40;99.90
28632;DHT22;15818;45.534;5.292;2022-11-03T04:08:10;11.30;99.90
28632;DHT22;15818;45.534;5.292;2022-11-03T04:10:36;11.40;99.90
28632;DHT22;15818;45.534;5.292;2022-11-03T04:13:02;11.50;99.90
28632;DHT22;15818;45.534;5.292;2022-11-03T04:15:46;11.40;99.90
28632;DHT22;15818;45.534;5.292;2022-11-03T04:18:18;11.60;99.90
28632;DHT22;15818;45.534;5.292;2022-11-03T04:21:03;11.50;99.90
28632;DHT22;15818;45.534;5.292;2022-11-03T04:23:48;11.60;99.90
28632;DHT22;15818;45.534;5.292;2022-11-03T04:26:14;11.50;99.90
28632;DHT22;15818;45.534;5.292;2022-11-03T04:28:40;11.60;99.90
28632;DHT22;15818;45.534;5.292;2022-11-03T04:31:12;11.70;99.90
28632;DHT22;15818;45.534;5.292;2022-11-03T04:33:38;11.60;99.90
28632;DHT22;15818;45.534;5.292;2022-11-03T04:36:11;11.70;99.90
28632;DHT22;15818;45.534;5.292;2022-11-03T04:38:38;11.60;99.90
28632;DHT22;15818;45.534;5.292;2022-11-03T04:41:05;11.70;99.90
28632;DHT22;15818;45.534;5.292;2022-11-03T04:43:32;11.70;99.90
28632;DHT22;15818;45.534;5.292;2022-11-03T04:45:58;11.70;99.90
28632;DHT22;15818;45.534;5.292;2022-11-03T04:48:24;11.70;99.90
28632;DHT22;15818;45.534;5.292;2022-11-03T04:50:54;11.70;99.90
28632;DHT22;15818;45.534;5.292;2022-11-03T04:53:21;11.70;99.90
28632;DHT22;15818;45.534;5.292;2022-11-03T04:55:50;11.70;99.90
28632;DHT22;15818;45.534;5.292;2022-11-03T04:58:19;11.70;99.90
28632;DHT22;15818;45.534;5.292;2022-11-03T05:00:48;11.70;99.90
28632;DHT22;15818;45.534;5.292;2022-11-03T05:03:19;11.70;99.90
28632;DHT22;15818;45.534;5.292;2022-11-03T05:05:46;11.70;99.90
28632;DHT22;15818;45.534;5.292;2022-11-03T05:08:12;11.70;99.90
28632;DHT22;15818;45.534;5.292;2022-11-03T05:10:38;11.70;99.90
28632;DHT22;15818;45.534;5.292;2022-11-03T05:13:04;11.60;99.90
28632;DHT22;15818;45.534;5.292;2022-11-03T05:15:34;11.60;99.90
28632;DHT22;15818;45.534;5.292;2022-11-03T05:18:02;11.50;99.90
28632;DHT22;15818;45.534;5.292;2022-11-03T05:20:33;11.30;99.90
28632;DHT22;15818;45.534;5.292;2022-11-03T05:22:59;11.30;99.90
28632;DHT22;15818;45.534;5.292;2022-11-03T05:28:01;11.10;99.90
28632;DHT22;15818;45.534;5.292;2022-11-03T05:30:27;11.10;99.90
28632;DHT22;15818;45.534;5.292;2022-11-03T05:32:53;11.10;99.90
28632;DHT22;15818;45.534;5.292;2022-11-03T05:35:20;11.10;99.90
28632;DHT22;15818;45.534;5.292;2022-11-03T05:37:47;11.00;99.90
28632;DHT22;15818;45.534;5.292;2022-11-03T05:40:22;11.00;99.90
28632;DHT22;15818;45.534;5.292;2022-11-03T05:42:59;11.00;99.90
28632;DHT22;15818;45.534;5.292;2022-11-03T05:47:56;11.00;99.90
28632;DHT22;15818;45.534;5.292;2022-11-03T05:50:25;11.00;99.90
28632;DHT22;15818;45.534;5.292;2022-11-03T05:52:55;11.00;99.90
28632;DHT22;15818;45.534;5.292;2022-11-03T05:55:29;11.00;99.90
28632;DHT22;15818;45.534;5.292;2022-11-03T05:57:58;10.90;99.90
28632;DHT22;15818;45.534;5.292;2022-11-03T06:02:55;11.00;99.90
28632;DHT22;15818;45.534;5.292;2022-11-03T06:05:22;11.10;99.90
28632;DHT22;15818;45.534;5.292;2022-11-03T06:07:49;11.10;99.90
28632;DHT22;15818;45.534;5.292;2022-11-03T06:10:34;11.20;99.90
28632;DHT22;15818;45.534;5.292;2022-11-03T06:13:12;11.20;99.90
28632;DHT22;15818;45.534;5.292;2022-11-03T06:15:41;11.30;99.90
28632;DHT22;15818;45.534;5.292;2022-11-03T06:18:18;11.40;99.90
28632;DHT22;15818;45.534;5.292;2022-11-03T06:20:50;11.30;99.90
28632;DHT22;15818;45.534;5.292;2022-11-03T06:23:17;11.30;99.90
28632;DHT22;15818;45.534;5.292;2022-11-03T06:25:44;11.30;99.90
28632;DHT22;15818;45.534;5.292;2022-11-03T06:28:26;11.20;99.90
28632;DHT22;15818;45.534;5.292;2022-11-03T06:30:53;11.20;99.90
28632;DHT22;15818;45.534;5.292;2022-11-03T06:33:21;11.20;99.90
28632;DHT22;15818;45.534;5.292;2022-11-03T06:35:50;11.10;99.90
28632;DHT22;15818;45.534;5.292;2022-11-03T06:38:20;11.10;99.90
28632;DHT22;15818;45.534;5.292;2022-11-03T06:40:51;11.10;99.90
28632;DHT22;15818;45.534;5.292;2022-11-03T06:43:22;11.00;99.90
28632;DHT22;15818;45.534;5.292;2022-11-03T06:45:57;11.00;99.90
28632;DHT22;15818;45.534;5.292;2022-11-03T06:48:26;10.90;99.90
28632;DHT22;15818;45.534;5.292;2022-11-03T06:50:53;11.00;99.90
28632;DHT22;15818;45.534;5.292;2022-11-03T06:53:24;11.00;99.90
28632;DHT22;15818;45.534;5.292;2022-11-03T06:55:51;11.10;99.90
28632;DHT22;15818;45.534;5.292;2022-11-03T06:58:34;11.10;99.90
28632;DHT22;15818;45.534;5.292;2022-11-03T07:01:24;11.20;99.90
28632;DHT22;15818;45.534;5.292;2022-11-03T07:04:01;11.20;99.90
28632;DHT22;15818;45.534;5.292;2022-11-03T07:06:36;11.20;99.90
28632;DHT22;15818;45.534;5.292;2022-11-03T07:09:04;11.30;99.90
28632;DHT22;15818;45.534;5.292;2022-11-03T07:11:35;11.40;99.90
28632;DHT22;15818;45.534;5.292;2022-11-03T07:14:17;11.40;99.90
28632;DHT22;15818;45.534;5.292;2022-11-03T07:19:34;11.40;99.90
28632;DHT22;15818;45.534;5.292;2022-11-03T07:22:08;11.30;99.90
28632;DHT22;15818;45.534;5.292;2022-11-03T07:24:42;11.30;99.90
28632;DHT22;15818;45.534;5.292;2022-11-03T07:29:47;11.20;99.90
28632;DHT22;15818;45.534;5.292;2022-11-03T07:32:22;11.30;99.90
28632;DHT22;15818;45.534;5.292;2022-11-03T07:35:20;11.40;99.90
28632;DHT22;15818;45.534;5.292;2022-11-03T07:37:51;11.50;99.90
28632;DHT22;15818;45.534;5.292;2022-11-03T07:40:35;11.50;99.90
28632;DHT22;15818;45.534;5.292;2022-11-03T07:50:56;11.80;99.90
28632;DHT22;15818;45.534;5.292;2022-11-03T07:53:40;11.80;99.90
28632;DHT22;15818;45.534;5.292;2022-11-03T07:56:19;11.90;99.90
28632;DHT22;15818;45.534;5.292;2022-11-03T07:58:47;11.90;99.90
28632;DHT22;15818;45.534;5.292;2022-11-03T08:01:35;12.00;99.90
28632;DHT22;15818;45.534;5.292;2022-11-03T08:04:04;12.10;99.90
28632;DHT22;15818;45.534;5.292;2022-11-03T08:06:31;12.30;99.90
28632;DHT22;15818;45.534;5.292;2022-11-03T08:08:57;12.30;99.90
28632;DHT22;15818;45.534;5.292;2022-11-03T08:11:23;12.40;99.90
28632;DHT22;15818;45.534;5.292;2022-11-03T08:13:50;12.50;99.90
28632;DHT22;15818;45.534;5.292;2022-11-03T08:16:16;12.40;99.90
28632;DHT22;15818;45.534;5.292;2022-11-03T08:18:41;12.60;99.90
28632;DHT22;15818;45.534;5.292;2022-11-03T08:21:07;12.60;99.90
28632;DHT22;15818;45.534;5.292;2022-11-03T08:23:33;12.80;99.90
28632;DHT22;15818;45.534;5.292;2022-11-03T08:25:59;12.90;99.90
28632;DHT22;15818;45.534;5.292;2022-11-03T08:28:24;13.10;99.90
28632;DHT22;15818;45.534;5.292;2022-11-03T08:30:50;13.10;99.90
28632;DHT22;15818;45.534;5.292;2022-11-03T08:33:16;13.40;99.90
28632;DHT22;15818;45.534;5.292;2022-11-03T08:35:42;13.50;99.90
28632;DHT22;15818;45.534;5.292;2022-11-03T08:38:07;13.50;99.90
28632;DHT22;15818;45.534;5.292;2022-11-03T08:40:33;13.60;99.90
28632;DHT22;15818;45.534;5.292;2022-11-03T08:42:58;13.40;99.90
28632;DHT22;15818;45.534;5.292;2022-11-03T08:45:28;13.10;99.90
28632;DHT22;15818;45.534;5.292;2022-11-03T08:47:54;13.10;99.90
28632;DHT22;15818;45.534;5.292;2022-11-03T08:50:20;13.10;99.90
28632;DHT22;15818;45.534;5.292;2022-11-03T08:52:46;13.20;99.90
28632;DHT22;15818;45.534;5.292;2022-11-03T08:55:11;13.20;99.90
28632;DHT22;15818;45.534;5.292;2022-11-03T08:57:37;13.20;99.90
28632;DHT22;15818;45.534;5.292;2022-11-03T09:00:04;13.30;99.90
28632;DHT22;15818;45.534;5.292;2022-11-03T09:02:30;13.40;99.90
28632;DHT22;15818;45.534;5.292;2022-11-03T09:04:56;13.30;99.90
28632;DHT22;15818;45.534;5.292;2022-11-03T09:07:22;13.20;99.90
28632;DHT22;15818;45.534;5.292;2022-11-03T09:09:47;13.20;99.90
28632;DHT22;15818;45.534;5.292;2022-11-03T09:12:13;13.30;99.90
28632;DHT22;15818;45.534;5.292;2022-11-03T09:14:39;13.40;99.90
28632;DHT22;15818;45.534;5.292;2022-11-03T09:17:04;13.40;99.90
28632;DHT22;15818;45.534;5.292;2022-11-03T09:19:30;13.50;99.90
28632;DHT22;15818;45.534;5.292;2022-11-03T09:21:55;13.40;99.90
28632;DHT22;15818;45.534;5.292;2022-11-03T09:24:21;13.30;99.90
28632;DHT22;15818;45.534;5.292;2022-11-03T09:26:47;13.30;99.90
28632;DHT22;15818;45.534;5.292;2022-11-03T09:29:13;13.30;99.90
28632;DHT22;15818;45.534;5.292;2022-11-03T09:31:38;13.30;99.90
28632;DHT22;15818;45.534;5.292;2022-11-03T09:34:04;13.30;99.90
28632;DHT22;15818;45.534;5.292;2022-11-03T09:36:30;13.30;99.90
28632;DHT22;15818;45.534;5.292;2022-11-03T09:38:55;13.30;99.90
28632;DHT22;15818;45.534;5.292;2022-11-03T09:41:21;13.30;99.90
28632;DHT22;15818;45.534;5.292;2022-11-03T09:43:47;13.30;99.90
28632;DHT22;15818;45.534;5.292;2022-11-03T09:46:13;13.20;99.90
28632;DHT22;15818;45.534;5.292;2022-11-03T09:48:40;13.20;99.90
28632;DHT22;15818;45.534;5.292;2022-11-03T09:51:12;13.20;99.90
28632;DHT22;15818;45.534;5.292;2022-11-03T09:53:39;13.20;99.90
28632;DHT22;15818;45.534;5.292;2022-11-03T09:56:04;13.20;99.90
28632;DHT22;15818;45.534;5.292;2022-11-03T09:58:32;13.20;99.90
28632;DHT22;15818;45.534;5.292;2022-11-03T10:00:59;13.20;99.90
28632;DHT22;15818;45.534;5.292;2022-11-03T10:03:25;13.20;99.90
28632;DHT22;15818;45.534;5.292;2022-11-03T10:05:51;13.30;99.90
28632;DHT22;15818;45.534;5.292;2022-11-03T10:08:25;13.20;99.90
28632;DHT22;15818;45.534;5.292;2022-11-03T10:10:52;13.10;99.90
28632;DHT22;15818;45.534;5.292;2022-11-03T10:13:39;13.00;99.90
28632;DHT22;15818;45.534;5.292;2022-11-03T10:16:11;13.10;99.90
28632;DHT22;15818;45.534;5.292;2022-11-03T10:18:39;13.00;99.90
28632;DHT22;15818;45.534;5.292;2022-11-03T10:21:06;13.10;99.90
28632;DHT22;15818;45.534;5.292;2022-11-03T10:23:33;13.10;99.90
28632;DHT22;15818;45.534;5.292;2022-11-03T10:26:20;13.10;99.90
28632;DHT22;15818;45.534;5.292;2022-11-03T10:29:04;13.00;99.90
28632;DHT22;15818;45.534;5.292;2022-11-03T10:31:33;12.90;99.90
28632;DHT22;15818;45.534;5.292;2022-11-03T10:33:59;13.00;99.90
28632;DHT22;15818;45.534;5.292;2022-11-03T10:36:26;12.90;99.90
28632;DHT22;15818;45.534;5.292;2022-11-03T10:38:52;12.90;99.90
28632;DHT22;15818;45.534;5.292;2022-11-03T10:41:20;12.90;99.90
28632;DHT22;15818;45.534;5.292;2022-11-03T10:46:38;13.00;99.90
28632;DHT22;15818;45.534;5.292;2022-11-03T10:49:11;13.00;99.90
28632;DHT22;15818;45.534;5.292;2022-11-03T10:51:37;12.90;99.90
28632;DHT22;15818;45.534;5.292;2022-11-03T10:54:03;12.80;99.90
28632;DHT22;15818;45.534;5.292;2022-11-03T10:56:30;12.90;99.90
28632;DHT22;15818;45.534;5.292;2022-11-03T10:58:58;12.70;99.90
28632;DHT22;15818;45.534;5.292;2022-11-03T11:01:24;12.80;99.90
28632;DHT22;15818;45.534;5.292;2022-11-03T11:03:50;12.70;99.90
28632;DHT22;15818;45.534;5.292;2022-11-03T11:06:26;12.80;99.90
28632;DHT22;15818;45.534;5.292;2022-11-03T11:08:59;12.70;99.90
28632;DHT22;15818;45.534;5.292;2022-11-03T11:11:26;12.70;99.90
28632;DHT22;15818;45.534;5.292;2022-11-03T11:16:52;12.70;99.90
28632;DHT22;15818;45.534;5.292;2022-11-03T11:19:18;12.70;99.90
28632;DHT22;15818;45.534;5.292;2022-11-03T11:24:12;12.70;99.90
28632;DHT22;15818;45.534;5.292;2022-11-03T11:26:38;12.70;99.90
28632;DHT22;15818;45.534;5.292;2022-11-03T11:31:40;12.80;99.90
28632;DHT22;15818;45.534;5.292;2022-11-03T11:36:40;12.90;99.90
28632;DHT22;15818;45.534;5.292;2022-11-03T11:42:11;12.80;99.90
28632;DHT22;15818;45.534;5.292;2022-11-03T11:47:24;12.30;99.90
28632;DHT22;15818;45.534;5.292;2022-11-03T11:52:43;12.20;99.90
28632;DHT22;15818;45.534;5.292;2022-11-03T11:55:50;12.10;99.90
28632;DHT22;15818;45.534;5.292;2022-11-03T11:58:21;12.00;99.90
28632;DHT22;15818;45.534;5.292;2022-11-03T12:00:59;11.90;99.90
28632;DHT22;15818;45.534;5.292;2022-11-03T12:03:34;11.90;99.90
28632;DHT22;15818;45.534;5.292;2022-11-03T12:06:01;11.90;99.90
28632;DHT22;15818;45.534;5.292;2022-11-03T12:08:27;11.80;99.90
28632;DHT22;15818;45.534;5.292;2022-11-03T12:11:00;11.80;99.90
28632;DHT22;15818;45.534;5.292;2022-11-03T12:13:46;11.70;99.90
28632;DHT22;15818;45.534;5.292;2022-11-03T12:16:34;11.80;99.90
28632;DHT22;15818;45.534;5.292;2022-11-03T12:19:39;11.60;99.90
28632;DHT22;15818;45.534;5.292;2022-11-03T12:22:09;11.50;99.90
28632;DHT22;15818;45.534;5.292;2022-11-03T12:24:38;11.50;99.90
28632;DHT22;15818;45.534;5.292;2022-11-03T12:30:00;11.40;99.90
28632;DHT22;15818;45.534;5.292;2022-11-03T12:32:27;11.30;99.90
28632;DHT22;15818;45.534;5.292;2022-11-03T12:34:52;11.30;99.90
28632;DHT22;15818;45.534;5.292;2022-11-03T12:37:20;11.40;99.90
28632;DHT22;15818;45.534;5.292;2022-11-03T12:39:45;11.40;99.90
28632;DHT22;15818;45.534;5.292;2022-11-03T12:42:11;11.50;99.90
28632;DHT22;15818;45.534;5.292;2022-11-03T12:44:36;11.40;99.90
28632;DHT22;15818;45.534;5.292;2022-11-03T12:47:02;11.50;99.90
28632;DHT22;15818;45.534;5.292;2022-11-03T12:49:28;11.50;99.90
28632;DHT22;15818;45.534;5.292;2022-11-03T12:51:54;11.50;99.90
28632;DHT22;15818;45.534;5.292;2022-11-03T12:54:19;11.40;99.90
28632;DHT22;15818;45.534;5.292;2022-11-03T12:56:46;11.40;99.90
28632;DHT22;15818;45.534;5.292;2022-11-03T12:59:12;11.50;99.90
28632;DHT22;15818;45.534;5.292;2022-11-03T13:01:37;11.50;99.90
28632;DHT22;15818;45.534;5.292;2022-11-03T13:04:03;11.50;99.90
28632;DHT22;15818;45.534;5.292;2022-11-03T13:06:30;11.50;99.90
28632;DHT22;15818;45.534;5.292;2022-11-03T13:08:56;11.60;99.90
28632;DHT22;15818;45.534;5.292;2022-11-03T13:11:22;11.70;99.90
28632;DHT22;15818;45.534;5.292;2022-11-03T13:14:06;11.80;99.90
28632;DHT22;15818;45.534;5.292;2022-11-03T13:16:31;11.90;99.90
28632;DHT22;15818;45.534;5.292;2022-11-03T13:18:57;11.90;99.90
28632;DHT22;15818;45.534;5.292;2022-11-03T13:21:23;11.90;99.90
28632;DHT22;15818;45.534;5.292;2022-11-03T13:23:48;11.80;99.90
28632;DHT22;15818;45.534;5.292;2022-11-03T13:26:14;11.90;99.90
28632;DHT22;15818;45.534;5.292;2022-11-03T13:28:39;11.80;99.90
28632;DHT22;15818;45.534;5.292;2022-11-03T13:31:05;11.80;99.90
28632;DHT22;15818;45.534;5.292;2022-11-03T13:33:31;11.80;99.90
28632;DHT22;15818;45.534;5.292;2022-11-03T13:35:57;11.90;99.90
28632;DHT22;15818;45.534;5.292;2022-11-03T13:38:22;12.00;99.90
28632;DHT22;15818;45.534;5.292;2022-11-03T13:40:48;12.00;99.90
28632;DHT22;15818;45.534;5.292;2022-11-03T13:43:13;12.00;99.90
28632;DHT22;15818;45.534;5.292;2022-11-03T13:45:39;12.00;99.90
28632;DHT22;15818;45.534;5.292;2022-11-03T13:48:05;12.10;99.90
28632;DHT22;15818;45.534;5.292;2022-11-03T13:50:31;12.20;99.90
28632;DHT22;15818;45.534;5.292;2022-11-03T13:52:56;12.30;99.90
28632;DHT22;15818;45.534;5.292;2022-11-03T13:55:22;12.20;99.90
28632;DHT22;15818;45.534;5.292;2022-11-03T13:57:47;12.20;99.90
28632;DHT22;15818;45.534;5.292;2022-11-03T14:00:14;12.20;99.90
28632;DHT22;15818;45.534;5.292;2022-11-03T14:02:41;12.30;99.90
28632;DHT22;15818;45.534;5.292;2022-11-03T14:05:08;12.10;99.90
28632;DHT22;15818;45.534;5.292;2022-11-03T14:07:34;12.10;99.90
28632;DHT22;15818;45.534;5.292;2022-11-03T14:09:59;12.10;99.90
28632;DHT22;15818;45.534;5.292;2022-11-03T14:12:25;12.10;99.90
28632;DHT22;15818;45.534;5.292;2022-11-03T14:14:58;11.90;99.90
28632;DHT22;15818;45.534;5.292;2022-11-03T14:17:24;12.00;99.90
28632;DHT22;15818;45.534;5.292;2022-11-03T14:19:50;12.00;99.90
28632;DHT22;15818;45.534;5.292;2022-11-03T14:22:16;12.00;99.90
28632;DHT22;15818;45.534;5.292;2022-11-03T14:24:42;12.00;99.90
28632;DHT22;15818;45.534;5.292;2022-11-03T14:27:07;12.00;99.90
28632;DHT22;15818;45.534;5.292;2022-11-03T14:29:33;12.00;99.90
28632;DHT22;15818;45.534;5.292;2022-11-03T14:31:59;12.10;99.90
28632;DHT22;15818;45.534;5.292;2022-11-03T14:34:25;12.10;99.90
28632;DHT22;15818;45.534;5.292;2022-11-03T14:36:51;12.10;99.90
28632;DHT22;15818;45.534;5.292;2022-11-03T14:39:16;12.00;99.90
28632;DHT22;15818;45.534;5.292;2022-11-03T14:41:42;12.10;99.90
28632;DHT22;15818;45.534;5.292;2022-11-03T14:44:26;12.20;99.90
28632;DHT22;15818;45.534;5.292;2022-11-03T14:46:51;12.10;99.90
28632;DHT22;15818;45.534;5.292;2022-11-03T14:49:17;11.90;99.90
28632;DHT22;15818;45.534;5.292;2022-11-03T14:51:42;11.80;99.90
28632;DHT22;15818;45.534;5.292;2022-11-03T14:54:08;11.70;99.90
28632;DHT22;15818;45.534;5.292;2022-11-03T14:56:34;11.70;99.90
28632;DHT22;15818;45.534;5.292;2022-11-03T14:59:01;11.60;99.90
28632;DHT22;15818;45.534;5.292;2022-11-03T15:01:26;11.50;99.90
28632;DHT22;15818;45.534;5.292;2022-11-03T15:03:52;11.50;99.90
28632;DHT22;15818;45.534;5.292;2022-11-03T15:06:18;11.60;99.90
28632;DHT22;15818;45.534;5.292;2022-11-03T15:08:44;11.60;99.90
28632;DHT22;15818;45.534;5.292;2022-11-03T15:11:09;11.60;99.90
28632;DHT22;15818;45.534;5.292;2022-11-03T15:13:35;11.50;99.90
28632;DHT22;15818;45.534;5.292;2022-11-03T15:16:02;11.60;99.90
28632;DHT22;15818;45.534;5.292;2022-11-03T15:18:28;11.70;99.90
28632;DHT22;15818;45.534;5.292;2022-11-03T15:20:53;11.70;99.90
28632;DHT22;15818;45.534;5.292;2022-11-03T15:23:19;11.70;99.90
28632;DHT22;15818;45.534;5.292;2022-11-03T15:25:45;11.70;99.90
28632;DHT22;15818;45.534;5.292;2022-11-03T15:28:10;11.80;99.90
28632;DHT22;15818;45.534;5.292;2022-11-03T15:30:36;11.70;99.90
28632;DHT22;15818;45.534;5.292;2022-11-03T15:33:02;11.80;99.90
28632;DHT22;15818;45.534;5.292;2022-11-03T15:35:28;11.80;99.90
28632;DHT22;15818;45.534;5.292;2022-11-03T15:37:53;11.80;99.90
28632;DHT22;15818;45.534;5.292;2022-11-03T15:40:19;11.90;99.90
28632;DHT22;15818;45.534;5.292;2022-11-03T15:42:45;11.90;99.90
28632;DHT22;15818;45.534;5.292;2022-11-03T15:45:12;11.90;99.90
28632;DHT22;15818;45.534;5.292;2022-11-03T15:47:37;11.90;99.90
28632;DHT22;15818;45.534;5.292;2022-11-03T15:50:04;11.90;99.90
28632;DHT22;15818;45.534;5.292;2022-11-03T15:52:30;11.90;99.90
28632;DHT22;15818;45.534;5.292;2022-11-03T15:54:55;11.90;99.90
28632;DHT22;15818;45.534;5.292;2022-11-03T15:57:21;11.90;99.90
28632;DHT22;15818;45.534;5.292;2022-11-03T15:59:46;11.80;99.90
28632;DHT22;15818;45.534;5.292;2022-11-03T16:02:12;11.80;99.90
28632;DHT22;15818;45.534;5.292;2022-11-03T16:04:38;11.80;99.90
28632;DHT22;15818;45.534;5.292;2022-11-03T16:07:03;11.90;99.90
28632;DHT22;15818;45.534;5.292;2022-11-03T16:09:29;11.90;99.90
28632;DHT22;15818;45.534;5.292;2022-11-03T16:11:55;11.90;99.90
28632;DHT22;15818;45.534;5.292;2022-11-03T16:14:20;11.90;99.90
28632;DHT22;15818;45.534;5.292;2022-11-03T16:16:46;11.90;99.90
28632;DHT22;15818;45.534;5.292;2022-11-03T16:19:11;11.90;99.90
28632;DHT22;15818;45.534;5.292;2022-11-03T16:21:37;11.90;99.90
28632;DHT22;15818;45.534;5.292;2022-11-03T16:24:03;11.90;99.90
28632;DHT22;15818;45.534;5.292;2022-11-03T16:26:29;11.90;99.90
28632;DHT22;15818;45.534;5.292;2022-11-03T16:28:58;11.90;99.90
28632;DHT22;15818;45.534;5.292;2022-11-03T16:31:24;11.90;99.90
28632;DHT22;15818;45.534;5.292;2022-11-03T16:33:50;11.90;99.90
28632;DHT22;15818;45.534;5.292;2022-11-03T16:36:16;12.00;99.90
28632;DHT22;15818;45.534;5.292;2022-11-03T16:38:43;11.90;99.90
28632;DHT22;15818;45.534;5.292;2022-11-03T16:41:09;11.90;99.90